Time;durP1;ratioP1;P1;durP2;ratioP2;P2;SDS_P1;SDS_P2;PMS_P1;PMS_P2;Temp;Humidity;BMP_temperature;BMP_pressure;BME280_temperature;BME280_humidity;BME280_pressure;Samples;Min_cycle;Max_cycle;Signal;HPM_P1;HPM_P2
2021/09/07 00:02:21;;;;;;;8.17;6.00;;;;;;;16.20;73.57;95785.31;5033162;28;20443;-81
2021/09/07 00:04:48;;;;;;;8.87;6.40;;;;;;;16.12;73.57;95770.13;5015693;28;20774;-81
2021/09/07 00:07:15;;;;;;;6.23;5.60;;;;;;;16.13;74.19;95768.31;5034336;28;20548;-81
2021/09/07 00:09:43;;;;;;;7.70;4.97;;;;;;;16.07;74.67;95773.22;5040348;28;20519;-81
2021/09/07 00:12:10;;;;;;;6.20;5.60;;;;;;;16.06;74.33;95754.81;5040171;28;20533;-81
2021/09/07 00:14:37;;;;;;;7.37;5.67;;;;;;;15.99;75.03;95766.97;5040057;28;20455;-81
2021/09/07 00:17:04;;;;;;;5.70;5.20;;;;;;;15.90;75.47;95759.84;5039721;28;20457;-81
2021/09/07 00:19:31;;;;;;;8.73;5.13;;;;;;;15.91;75.72;95767.66;5039960;28;20461;-81
2021/09/07 00:21:58;;;;;;;5.70;5.30;;;;;;;15.86;75.91;95766.41;5039709;28;20435;-81
2021/09/07 00:24:26;;;;;;;7.93;5.77;;;;;;;15.78;75.85;95772.41;5040320;28;20429;-81
2021/09/07 00:26:54;;;;;;;9.33;5.77;;;;;;;15.75;76.24;95762.94;5039635;28;20998;-81
2021/09/07 00:29:21;;;;;;;7.20;5.73;;;;;;;15.77;76.74;95765.44;5039691;28;20454;-81
2021/09/07 00:31:48;;;;;;;6.27;5.67;;;;;;;15.71;76.83;95774.78;5039551;28;20443;-81
2021/09/07 00:34:15;;;;;;;6.60;6.00;;;;;;;15.56;76.83;95778.78;5039851;28;20441;-81
2021/09/07 00:36:42;;;;;;;7.23;6.20;;;;;;;15.52;77.33;95781.84;5039446;28;20484;-81
2021/09/07 00:39:11;;;;;;;9.07;5.90;;;;;;;15.09;79.37;95780.41;5039498;28;20427;-81
2021/09/07 00:41:38;;;;;;;9.80;6.93;;;;;;;14.85;80.62;95773.66;5039465;28;20443;-81
2021/09/07 00:44:14;;;;;;;7.07;6.40;;;;;;;14.84;80.24;95779.06;5039811;28;20438;-81
2021/09/07 00:46:41;;;;;;;8.20;7.40;;;;;;;14.99;79.83;95776.88;5039755;28;20584;-81
2021/09/07 00:49:08;;;;;;;8.80;6.77;;;;;;;15.08;79.98;95781.38;5039339;28;20439;-81
2021/09/07 00:51:37;;;;;;;7.20;6.50;;;;;;;15.07;79.69;95780.53;5039403;28;20435;-81
2021/09/07 00:54:04;;;;;;;7.27;6.57;;;;;;;15.04;79.47;95785.25;5039730;28;20581;-81
2021/09/07 00:56:33;;;;;;;10.07;7.60;;;;;;;15.01;79.78;95783.69;5039361;28;20461;-81
2021/09/07 00:59:02;;;;;;;9.40;7.07;;;;;;;15.02;79.70;95785.38;5039549;28;20440;-81
2021/09/07 01:01:31;;;;;;;7.20;6.50;;;;;;;15.04;79.71;95777.31;5039913;28;20434;-81
2021/09/07 01:03:57;;;;;;;14.30;7.87;;;;;;;15.08;79.55;95779.56;5039238;28;20924;-81
2021/09/07 01:06:25;;;;;;;7.90;7.10;;;;;;;15.13;79.19;95773.88;5039183;28;20474;-81
2021/09/07 01:08:53;;;;;;;12.27;6.30;;;;;;;15.12;79.12;95772.19;5037701;28;20476;-81
2021/09/07 01:11:20;;;;;;;7.50;6.50;;;;;;;15.15;79.29;95762.19;5039170;28;20513;-81
2021/09/07 01:13:47;;;;;;;7.43;6.83;;;;;;;15.15;79.32;95769.28;5021034;28;20446;-81
2021/09/07 01:16:15;;;;;;;8.63;6.43;;;;;;;15.00;79.27;95771.44;5039300;28;20552;-81
2021/09/07 01:18:43;;;;;;;11.30;7.23;;;;;;;14.96;79.95;95777.16;5020199;28;20529;-81
2021/09/07 01:21:11;;;;;;;7.93;7.20;;;;;;;14.77;80.78;95773.50;5035842;28;20951;-81
2021/09/07 01:23:41;;;;;;;7.53;6.57;;;;;;;14.74;80.74;95775.53;5036022;28;20917;-80
2021/09/07 01:26:10;;;;;;;8.00;6.90;;;;;;;14.68;80.72;95769.00;5018062;28;20482;-81
2021/09/07 01:28:37;;;;;;;12.17;7.03;;;;;;;14.68;81.03;95778.72;5036241;28;20438;-81
2021/09/07 01:31:05;;;;;;;7.60;6.90;;;;;;;14.64;80.85;95769.41;5036274;28;20449;-81
2021/09/07 01:33:32;;;;;;;7.77;6.63;;;;;;;14.54;81.37;95769.38;5036069;28;20453;-81
2021/09/07 01:35:59;;;;;;;8.60;7.27;;;;;;;14.53;81.57;95772.97;5035705;28;20450;-81
2021/09/07 01:38:27;;;;;;;11.70;7.40;;;;;;;14.50;82.14;95773.25;5035746;28;20539;-81
2021/09/07 01:40:54;;;;;;;7.57;6.87;;;;;;;14.52;82.24;95773.94;5035676;28;20437;-81
2021/09/07 01:43:23;;;;;;;7.27;6.57;;;;;;;14.53;81.77;95768.53;5035578;28;20466;-81
2021/09/07 01:45:51;;;;;;;9.93;7.23;;;;;;;14.55;81.76;95768.41;5035698;28;20494;-81
2021/09/07 01:48:19;;;;;;;11.07;7.73;;;;;;;14.61;81.18;95770.50;5033785;28;20450;-81
2021/09/07 01:50:47;;;;;;;8.47;6.93;;;;;;;14.61;81.23;95764.38;5035971;28;20454;-81
2021/09/07 01:53:14;;;;;;;8.00;7.20;;;;;;;14.66;81.19;95767.44;5035780;28;20820;-81
2021/09/07 01:55:42;;;;;;;9.90;7.57;;;;;;;14.66;80.97;95768.28;5035437;28;20682;-81
2021/09/07 01:58:09;;;;;;;8.07;7.27;;;;;;;14.73;80.47;95772.06;5035897;28;20521;-81
2021/09/07 02:00:39;;;;;;;7.40;6.73;;;;;;;14.73;80.64;95763.28;5035346;28;20519;-81
2021/09/07 02:03:06;;;;;;;7.37;6.67;;;;;;;14.72;80.45;95766.91;5035402;28;20445;-81
2021/09/07 02:05:33;;;;;;;9.17;6.70;;;;;;;14.71;80.10;95759.97;5036038;28;20524;-81
2021/09/07 02:08:00;;;;;;;10.67;7.17;;;;;;;14.69;80.34;95769.81;5035264;28;20801;-82
2021/09/07 02:10:27;;;;;;;10.97;7.17;;;;;;;14.68;80.97;95763.72;5017013;28;20963;-81
2021/09/07 02:12:54;;;;;;;8.63;7.70;;;;;;;14.68;81.13;95757.59;5035033;28;20439;-81
2021/09/07 02:15:21;;;;;;;8.30;7.10;;;;;;;14.68;81.23;95760.22;5035017;28;20451;-81
2021/09/07 02:17:50;;;;;;;8.60;7.70;;;;;;;14.67;81.49;95763.84;5035582;28;20545;-81
2021/09/07 02:20:17;;;;;;;8.10;7.40;;;;;;;14.64;81.76;95759.66;5035291;28;20770;-81
2021/09/07 02:22:44;;;;;;;11.60;8.00;;;;;;;14.64;81.64;95762.31;5035145;28;20548;-81
2021/09/07 02:25:12;;;;;;;8.10;7.40;;;;;;;14.49;82.05;95750.44;5034789;28;20449;-81
2021/09/07 02:27:39;;;;;;;8.97;8.07;;;;;;;14.43;82.90;95756.22;5034744;28;20980;-81
2021/09/07 02:30:07;;;;;;;14.63;8.40;;;;;;;14.41;83.22;95748.41;5034539;28;20435;-81
2021/09/07 02:32:34;;;;;;;9.50;8.60;;;;;;;14.41;82.93;95745.78;5034091;28;20438;-81
2021/09/07 02:35:02;;;;;;;10.23;8.57;;;;;;;14.40;82.91;95749.38;5034633;28;20992;-81
2021/09/07 02:37:29;;;;;;;8.00;7.30;;;;;;;14.39;83.25;95752.16;5034638;28;20514;-81
2021/09/07 02:39:56;;;;;;;10.13;9.23;;;;;;;14.38;83.66;95747.84;5034768;28;20439;-81
2021/09/07 02:42:23;;;;;;;12.70;9.00;;;;;;;14.37;83.92;95746.16;5034956;28;20529;-81
2021/09/07 02:44:50;;;;;;;9.83;8.83;;;;;;;14.37;84.10;95743.53;5034315;28;20436;-81
2021/09/07 02:47:17;;;;;;;10.83;9.73;;;;;;;14.25;84.63;95745.44;5034582;28;20478;-81
2021/09/07 02:49:44;;;;;;;11.47;10.27;;;;;;;14.26;85.88;95747.94;5034372;28;20940;-81
2021/09/07 02:52:13;;;;;;;13.10;10.77;;;;;;;14.34;85.93;95749.06;5016173;28;20899;-81
2021/09/07 02:54:40;;;;;;;11.87;10.67;;;;;;;14.37;85.73;95741.72;5035373;28;20472;-81
2021/09/07 02:57:07;;;;;;;14.40;12.03;;;;;;;14.36;86.69;95752.41;5034574;28;20898;-81
2021/09/07 02:59:34;;;;;;;11.87;10.30;;;;;;;14.41;86.36;95748.41;5034223;28;20427;-81
2021/09/07 03:02:01;;;;;;;14.60;11.47;;;;;;;14.46;86.35;95756.00;5015989;28;20458;-81
2021/09/07 03:04:28;;;;;;;11.50;10.40;;;;;;;14.50;85.88;95752.13;5016431;28;20446;-81
2021/09/07 03:06:54;;;;;;;11.23;9.87;;;;;;;14.55;85.66;95752.56;5034401;28;20563;-82
2021/09/07 03:09:23;;;;;;;11.47;10.33;;;;;;;14.52;84.75;95750.19;5034301;28;20528;-81
2021/09/07 03:11:50;;;;;;;12.57;11.30;;;;;;;14.31;84.23;95751.97;5034280;28;20443;-81
2021/09/07 03:14:17;;;;;;;9.83;8.83;;;;;;;14.32;83.98;95754.50;5033977;28;20848;-81
2021/09/07 03:16:44;;;;;;;15.53;10.37;;;;;;;14.26;83.71;95755.88;5034030;28;20462;-81
2021/09/07 03:19:10;;;;;;;12.30;9.47;;;;;;;14.16;83.90;95749.69;5034089;28;20460;-81
2021/09/07 03:21:38;;;;;;;13.30;9.23;;;;;;;14.12;84.37;95750.06;5033847;28;20867;-81
2021/09/07 03:24:06;;;;;;;11.37;10.27;;;;;;;14.08;85.79;95751.31;5033747;28;20438;-81
2021/09/07 03:26:34;;;;;;;10.90;9.23;;;;;;;14.06;86.57;95754.06;5034256;28;20482;-81
2021/09/07 03:29:01;;;;;;;11.67;10.00;;;;;;;14.11;86.86;95751.03;5033659;28;20441;-81
2021/09/07 03:31:28;;;;;;;14.03;9.10;;;;;;;14.12;86.71;95748.28;5034278;28;20830;-81
2021/09/07 03:33:55;;;;;;;9.47;8.43;;;;;;;14.18;86.12;95760.97;5015388;28;20454;-81
2021/09/07 03:36:22;;;;;;;12.03;10.80;;;;;;;14.19;85.60;95744.16;5015834;28;20530;-81
2021/09/07 03:38:49;;;;;;;11.10;9.10;;;;;;;14.24;85.21;95747.25;5033724;28;20478;-81
2021/09/07 03:41:16;;;;;;;11.90;9.37;;;;;;;14.26;84.98;95750.59;5034298;28;20524;-81
2021/09/07 03:43:44;;;;;;;12.07;9.37;;;;;;;14.29;84.54;95756.56;5033108;28;20441;-81
2021/09/07 03:46:11;;;;;;;10.70;9.70;;;;;;;14.31;84.48;95744.91;5033791;28;20475;-81
2021/09/07 03:48:38;;;;;;;10.67;9.57;;;;;;;14.19;84.44;95743.31;5033436;28;20868;-81
2021/09/07 04:04:33;;;;;;;10.33;9.37;;;;;;;14.09;84.84;95752.97;5032166;28;20959;-81
2021/09/07 04:07:00;;;;;;;13.67;10.57;;;;;;;14.08;84.35;95752.13;5033195;28;20571;-83
2021/09/07 04:09:27;;;;;;;13.80;10.10;;;;;;;14.03;84.58;95749.06;4999426;28;20450;-79
2021/09/07 04:11:54;;;;;;;13.53;9.87;;;;;;;14.05;84.47;95752.41;5033951;28;20534;-82
2021/09/07 04:14:21;;;;;;;15.37;11.03;;;;;;;14.09;84.53;95755.63;5033108;28;20463;-82
2021/09/07 04:16:48;;;;;;;15.90;11.60;;;;;;;14.16;85.28;95754.13;5033286;28;21021;-81
2021/09/07 04:19:15;;;;;;;20.53;11.10;;;;;;;14.53;83.34;95762.41;5033468;28;20441;-81
2021/09/07 04:21:45;;;;;;;13.07;9.40;;;;;;;15.05;81.42;95773.72;5033000;28;20437;-81
2021/09/07 04:24:11;;;;;;;17.50;10.13;;;;;;;15.68;79.87;95766.28;5031507;28;20468;-81
2021/09/07 04:36:58;;;;;;;11.10;9.30;;;;;;;18.16;68.17;95774.16;5032864;28;20464;-81
2021/09/07 04:39:25;;;;;;;11.57;8.10;;;;;;;18.71;65.87;95781.03;5033219;28;20447;-81
2021/09/07 04:41:52;;;;;;;10.57;8.67;;;;;;;19.22;64.24;95784.59;5032861;28;21012;-81
2021/09/07 04:44:21;;;;;;;12.37;7.80;;;;;;;19.75;62.42;95785.09;5032795;28;20535;-81
2021/09/07 04:46:48;;;;;;;10.17;8.50;;;;;;;20.24;60.22;95789.56;5033454;28;20490;-81
2021/09/07 04:49:15;;;;;;;9.27;8.40;;;;;;;20.69;58.94;95775.72;5032820;28;20482;-81
2021/09/07 04:51:42;;;;;;;9.73;8.70;;;;;;;20.82;57.43;95781.38;5032988;28;20452;-81
2021/09/07 04:54:10;;;;;;;14.53;8.90;;;;;;;20.92;58.06;95782.00;5033141;28;20523;-80
2021/09/07 04:56:37;;;;;;;13.73;9.30;;;;;;;21.16;57.45;95782.91;5018323;28;21319;-81
2021/09/07 04:59:04;;;;;;;16.00;9.67;;;;;;;21.04;57.09;95785.13;5036493;28;20443;-80
2021/09/07 05:01:31;;;;;;;18.73;10.07;;;;;;;21.18;58.31;95784.41;5036723;28;20458;-82
2021/09/07 05:03:58;;;;;;;15.40;8.70;;;;;;;21.30;59.32;95776.88;5034994;28;20436;-81
2021/09/07 05:06:25;;;;;;;9.40;8.03;;;;;;;21.38;57.53;95784.81;5036493;28;20455;-81
2021/09/07 05:08:52;;;;;;;17.00;8.93;;;;;;;21.61;57.33;95784.88;5036629;28;20574;-81
2021/09/07 05:11:20;;;;;;;18.77;8.30;;;;;;;21.68;55.84;95795.69;5036551;28;21007;-81
2021/09/07 05:13:47;;;;;;;12.93;9.00;;;;;;;21.38;58.37;95792.84;5036429;28;20530;-83
2021/09/07 05:16:14;;;;;;;18.33;9.27;;;;;;;21.35;57.77;95798.53;5018405;28;20539;-81
2021/09/07 05:18:41;;;;;;;12.27;8.70;;;;;;;20.28;59.48;95791.75;5036200;28;20530;-81
2021/09/07 05:21:08;;;;;;;12.83;8.27;;;;;;;20.25;59.93;95794.78;5035178;28;20889;-81
2021/09/07 05:23:37;;;;;;;15.10;8.77;;;;;;;20.05;61.10;95804.91;5035327;28;20446;-80
2021/09/07 05:26:04;;;;;;;13.23;8.00;;;;;;;19.99;60.83;95800.25;5035124;28;20972;-80
2021/09/07 05:28:32;;;;;;;16.13;8.13;;;;;;;20.45;60.59;95794.44;5035154;28;20478;-80
2021/09/07 05:30:59;;;;;;;11.40;8.13;;;;;;;20.71;59.89;95801.22;5034844;28;20994;-80
2021/09/07 05:33:27;;;;;;;11.60;7.70;;;;;;;20.66;58.90;95803.56;5034788;28;20529;-80
2021/09/07 05:35:54;;;;;;;14.27;7.43;;;;;;;20.60;59.50;95800.75;5035081;28;20443;-81
2021/09/07 05:38:22;;;;;;;8.43;6.43;;;;;;;20.68;59.20;95795.41;5034156;28;20526;-81
2021/09/07 05:40:50;;;;;;;11.47;6.97;;;;;;;20.76;59.03;95794.53;5027660;28;21246;-82
2021/09/07 05:43:17;;;;;;;12.37;6.50;;;;;;;20.92;58.38;95794.50;5035418;28;20451;-79
2021/09/07 05:45:46;;;;;;;8.00;6.13;;;;;;;21.33;58.47;95801.38;5036317;28;20853;-79
2021/09/07 05:48:13;;;;;;;6.23;5.60;;;;;;;21.39;59.15;95809.69;5036083;28;20474;-78
2021/09/07 05:50:39;;;;;;;13.33;6.90;;;;;;;21.86;57.25;95801.59;5035935;28;20530;-80
2021/09/07 05:53:08;;;;;;;12.83;5.63;;;;;;;21.56;56.22;95804.09;5035059;28;20452;-80
2021/09/07 05:55:35;;;;;;;9.13;5.70;;;;;;;21.55;56.98;95807.78;5034686;28;20495;-80
2021/09/07 05:58:04;;;;;;;8.53;5.50;;;;;;;21.30;57.60;95796.38;5035110;28;20977;-80
2021/09/07 06:00:32;;;;;;;8.77;6.20;;;;;;;21.13;57.90;95799.28;5031227;28;20530;-80
2021/09/07 06:03:08;;;;;;;8.43;5.97;;;;;;;20.82;59.02;95799.22;5032999;28;20938;-80
2021/09/07 06:05:35;;;;;;;9.83;6.37;;;;;;;20.58;59.98;95802.75;5032974;28;20459;-79
2021/09/07 06:08:02;;;;;;;11.60;5.67;;;;;;;19.66;62.40;95799.38;5034307;28;20564;-80
2021/09/07 06:10:29;;;;;;;5.47;4.97;;;;;;;19.73;62.20;95800.41;5033876;28;20866;-80
2021/09/07 06:12:56;;;;;;;7.97;7.10;;;;;;;19.61;63.01;95801.69;5034021;28;20511;-81
2021/09/07 06:15:23;;;;;;;8.40;5.80;;;;;;;19.53;63.11;95801.66;5032787;28;20469;-81
2021/09/07 06:17:50;;;;;;;6.13;5.63;;;;;;;19.40;64.44;95801.28;5034481;28;20493;-81
2021/09/07 06:20:22;;;;;;;7.00;5.70;;;;;;;19.32;65.53;95793.25;5034835;28;20441;-80
2021/09/07 06:22:49;;;;;;;6.93;6.20;;;;;;;19.38;65.43;95796.13;5032716;28;20454;-82
2021/09/07 06:25:16;;;;;;;12.20;5.90;;;;;;;19.80;64.42;95796.06;5033927;28;20539;-80
2021/09/07 06:27:43;;;;;;;8.10;5.50;;;;;;;20.21;63.68;95793.41;5034507;28;20485;-81
2021/09/07 06:30:11;;;;;;;5.63;4.50;;;;;;;20.49;61.64;95793.91;5034210;28;20871;-80
2021/09/07 06:32:38;;;;;;;7.20;5.53;;;;;;;20.75;61.00;95791.03;5034726;28;20914;-81
2021/09/07 06:35:06;;;;;;;11.50;5.80;;;;;;;20.97;61.03;95795.66;5034634;28;20466;-80
2021/09/07 06:37:35;;;;;;;5.97;5.47;;;;;;;20.96;60.09;95793.16;5034620;28;20526;-81
2021/09/07 06:43:23;;;;;;;6.50;5.30;;;;;;;20.82;59.82;95794.72;5034015;28;20435;-81
2021/09/07 06:45:50;;;;;;;7.40;6.70;;;;;;;20.51;61.02;95799.09;5016149;28;20839;-81
2021/09/07 06:48:17;;;;;;;7.90;5.27;;;;;;;20.67;61.18;95793.72;5033846;28;20492;-81
2021/09/07 06:50:44;;;;;;;5.67;5.17;;;;;;;20.79;59.73;95797.69;5034522;28;20510;-81
2021/09/07 06:53:12;;;;;;;6.23;5.00;;;;;;;20.92;59.20;95800.69;5034449;28;20474;-81
2021/09/07 06:55:39;;;;;;;6.23;5.60;;;;;;;21.17;60.65;95801.44;5034232;28;20432;-81
2021/09/07 06:58:06;;;;;;;6.40;5.70;;;;;;;21.11;59.45;95791.44;5015831;28;20480;-81
2021/09/07 07:00:33;;;;;;;7.07;6.10;;;;;;;21.05;58.94;95800.13;5016044;28;20452;-81
2021/09/07 07:03:00;;;;;;;8.17;5.90;;;;;;;21.31;59.11;95798.03;5034374;28;20450;-81
2021/09/07 07:05:29;;;;;;;9.00;5.53;;;;;;;21.71;57.36;95798.03;5034372;28;20439;-81
2021/09/07 07:07:56;;;;;;;5.97;5.33;;;;;;;21.80;56.49;95792.44;5033960;28;20480;-81
2021/09/07 07:10:24;;;;;;;11.23;5.00;;;;;;;22.06;56.42;95792.13;5034016;28;20532;-81
2021/09/07 07:12:51;;;;;;;6.10;5.37;;;;;;;22.07;54.65;95791.13;5015858;28;20870;-80
2021/09/07 07:15:19;;;;;;;8.60;6.10;;;;;;;22.23;56.96;95793.66;5034384;28;20466;-81
2021/09/07 07:17:46;;;;;;;5.73;5.23;;;;;;;22.47;55.70;95797.94;5034012;28;20636;-81
2021/09/07 07:20:13;;;;;;;6.20;5.53;;;;;;;22.75;54.29;95798.19;5034034;28;20547;-81
2021/09/07 07:22:40;;;;;;;8.50;6.67;;;;;;;22.74;53.41;95795.69;5015689;28;20472;-81
2021/09/07 07:25:08;;;;;;;6.80;6.17;;;;;;;21.68;54.54;95809.88;5034169;28;20888;-81
2021/09/07 07:27:39;;;;;;;8.03;6.43;;;;;;;20.99;56.64;95806.97;5015481;28;20935;-81
2021/09/07 07:30:07;;;;;;;11.37;6.80;;;;;;;20.70;57.87;95810.22;5033609;28;20435;-81
2021/09/07 07:32:35;;;;;;;7.83;6.67;;;;;;;20.85;57.14;95799.69;5033535;28;20526;-81
2021/09/07 07:35:02;;;;;;;6.40;5.80;;;;;;;21.01;53.84;95806.81;5033569;28;20926;-81
2021/09/07 07:37:29;;;;;;;7.33;6.10;;;;;;;21.15;54.47;95802.59;5033545;28;20467;-81
2021/09/07 07:39:56;;;;;;;5.27;4.80;;;;;;;20.69;50.24;95803.22;5033465;28;20439;-81
2021/09/07 07:42:23;;;;;;;12.67;5.30;;;;;;;20.80;48.63;95810.03;5034034;28;20783;-81
2021/09/07 07:44:51;;;;;;;9.70;5.23;;;;;;;21.20;47.55;95802.91;5033193;28;20478;-81
2021/09/07 07:47:18;;;;;;;6.10;5.50;;;;;;;21.35;47.44;95811.88;5033240;28;20439;-81
2021/09/07 07:49:45;;;;;;;9.73;5.80;;;;;;;21.38;47.75;95806.19;5033707;28;20554;-81
2021/09/07 07:52:12;;;;;;;8.33;4.80;;;;;;;21.30;47.14;95814.25;5013515;28;20532;-81
2021/09/07 07:54:39;;;;;;;9.60;5.53;;;;;;;21.46;46.21;95808.84;5033761;28;20512;-81
2021/09/07 07:57:07;;;;;;;11.70;6.20;;;;;;;21.86;47.43;95804.25;5033302;28;20433;-81
2021/09/07 07:59:34;;;;;;;7.20;5.43;;;;;;;21.66;46.58;95817.22;5033307;28;20467;-82
2021/09/07 08:02:02;;;;;;;6.60;5.03;;;;;;;21.44;46.38;95815.38;5032314;28;20820;-81
2021/09/07 08:04:29;;;;;;;5.00;4.60;;;;;;;20.84;47.43;95806.03;5033716;28;20443;-81
2021/09/07 08:06:56;;;;;;;8.43;4.90;;;;;;;20.42;48.05;95809.75;5033077;28;20469;-81
2021/09/07 08:09:23;;;;;;;6.37;4.77;;;;;;;20.67;47.72;95813.25;5033583;28;20479;-81
2021/09/07 08:11:49;;;;;;;8.57;4.70;;;;;;;20.68;48.20;95817.56;5033657;28;20454;-81
2021/09/07 08:14:16;;;;;;;9.13;4.73;;;;;;;20.60;48.09;95811.44;5033016;28;20449;-81
2021/09/07 08:16:43;;;;;;;6.00;3.90;;;;;;;20.80;46.86;95810.03;5032800;28;20485;-81
2021/09/07 08:19:12;;;;;;;5.07;4.20;;;;;;;21.05;46.89;95805.47;5032938;28;20951;-81
2021/09/07 08:21:39;;;;;;;11.37;4.30;;;;;;;21.25;46.28;95805.94;5023667;28;20444;-80
2021/09/07 08:24:06;;;;;;;3.73;3.43;;;;;;;20.94;47.21;95805.84;5013479;28;20439;-81
2021/09/07 08:26:33;;;;;;;3.97;3.57;;;;;;;21.24;45.86;95806.94;5027874;28;20553;-80
2021/09/07 08:29:00;;;;;;;3.93;3.53;;;;;;;21.10;46.30;95799.59;5035426;28;20482;-81
2021/09/07 08:31:27;;;;;;;5.17;3.33;;;;;;;21.10;46.21;95800.44;5036883;28;20526;-82
2021/09/07 08:33:54;;;;;;;5.43;3.27;;;;;;;21.54;44.32;95806.13;5036895;28;20523;-81
2021/09/07 08:36:23;;;;;;;3.83;3.30;;;;;;;21.78;42.30;95794.47;5035693;28;20535;-81
2021/09/07 08:38:50;;;;;;;6.97;4.33;;;;;;;21.97;42.43;95793.16;5037091;28;20531;-81
2021/09/07 08:41:19;;;;;;;3.40;3.10;;;;;;;22.00;44.25;95798.16;5037106;28;20513;-81
2021/09/07 08:43:50;;;;;;;8.37;3.77;;;;;;;22.11;43.25;95795.09;5002258;28;20454;-82
2021/09/07 08:46:18;;;;;;;3.50;3.20;;;;;;;22.05;43.12;95803.00;5017949;28;20871;-82
2021/09/07 08:48:45;;;;;;;3.60;3.30;;;;;;;22.01;42.57;95794.47;5035769;28;20595;-81
2021/09/07 08:51:12;;;;;;;10.80;3.67;;;;;;;21.75;42.55;95794.00;5035396;28;20454;-81
2021/09/07 08:53:40;;;;;;;3.77;3.37;;;;;;;21.88;42.62;95794.22;5035373;28;20457;-81
2021/09/07 08:56:08;;;;;;;4.17;3.80;;;;;;;21.91;44.75;95796.53;5035253;28;20455;-81
2021/09/07 08:58:36;;;;;;;9.83;3.33;;;;;;;21.22;43.99;95799.06;5035696;28;20539;-81
2021/09/07 09:01:11;;;;;;;4.43;4.03;;;;;;;20.81;44.39;95790.34;5035328;28;20472;-82
2021/09/07 09:03:40;;;;;;;4.03;2.90;;;;;;;21.23;44.99;95794.56;5035401;28;20506;-82
2021/09/07 09:06:07;;;;;;;3.60;3.27;;;;;;;21.33;45.72;95787.19;5035376;28;20526;-82
2021/09/07 09:08:35;;;;;;;4.03;3.73;;;;;;;21.47;45.06;95791.81;5012979;28;21064;-81
2021/09/07 09:11:06;;;;;;;6.80;3.40;;;;;;;21.71;45.24;95782.81;5034392;28;20445;-80
2021/09/07 09:13:44;;;;;;;3.70;3.40;;;;;;;21.90;44.50;95784.19;5036288;28;20454;-80
2021/09/07 09:16:12;;;;;;;5.53;3.33;;;;;;;22.14;43.26;95772.50;5035634;28;20980;-82
2021/09/07 09:18:41;;;;;;;3.43;2.60;;;;;;;22.32;42.19;95769.53;5034378;28;20525;-82
2021/09/07 09:21:25;;;;;;;2.70;2.50;;;;;;;22.16;42.81;95765.97;5035964;28;20871;-81
2021/09/07 09:24:12;;;;;;;5.03;3.30;;;;;;;22.18;42.21;95753.25;5036528;28;20442;-80
2021/09/07 09:26:56;;;;;;;3.53;2.83;;;;;;;21.95;43.41;95763.09;5034777;28;20519;-81
2021/09/07 09:29:25;;;;;;;4.17;3.03;;;;;;;22.14;40.56;95762.66;4994414;28;20486;-81
2021/09/07 09:31:54;;;;;;;3.63;3.10;;;;;;;22.36;41.21;95757.44;4994610;28;20870;-81
2021/09/07 09:34:21;;;;;;;5.93;3.10;;;;;;;22.73;40.80;95761.91;4994268;28;20853;-80
2021/09/07 09:36:59;;;;;;;4.50;2.60;;;;;;;22.58;40.77;95759.25;4994381;28;20434;-81
2021/09/07 09:39:35;;;;;;;7.60;3.67;;;;;;;22.11;41.14;95760.34;4994020;28;20482;-81
2021/09/07 09:42:04;;;;;;;3.23;2.80;;;;;;;21.71;40.67;95755.28;4993883;28;20880;-81
2021/09/07 09:44:31;;;;;;;3.60;3.30;;;;;;;21.73;42.34;95756.75;4993838;28;20865;-80
2021/09/07 09:46:59;;;;;;;4.43;3.33;;;;;;;21.52;43.48;95765.41;4994001;28;20462;-81
2021/09/07 09:49:27;;;;;;;9.03;3.20;;;;;;;21.15;43.26;95762.56;4993923;28;20561;-81
2021/09/07 09:52:02;;;;;;;3.33;3.03;;;;;;;21.72;42.90;95756.94;4993119;28;20451;-81
2021/09/07 09:54:30;;;;;;;5.30;3.03;;;;;;;22.11;44.09;95755.00;4994046;28;20204;-81
2021/09/07 09:56:58;;;;;;;3.50;3.20;;;;;;;22.23;41.86;95753.53;4993851;28;21045;-80
2021/09/07 09:59:28;;;;;;;3.43;2.90;;;;;;;22.10;39.82;95750.66;4994152;28;20518;-80
2021/09/07 10:01:56;;;;;;;3.30;2.87;;;;;;;22.05;42.03;95761.06;4993762;28;20558;-79
2021/09/07 10:04:24;;;;;;;5.17;3.33;;;;;;;21.74;41.92;95746.91;4993753;28;21425;-80
2021/09/07 10:06:52;;;;;;;5.37;3.50;;;;;;;21.87;41.84;95745.28;5018492;28;20796;-80
2021/09/07 10:09:20;;;;;;;3.70;2.90;;;;;;;21.85;39.50;95757.16;5035118;28;20988;-80
2021/09/07 10:12:05;;;;;;;3.60;3.30;;;;;;;21.92;40.39;95737.56;5035619;28;20456;-79
2021/09/07 10:14:35;;;;;;;4.83;3.20;;;;;;;22.11;42.47;95746.13;5035255;28;20487;-79
2021/09/07 10:17:25;;;;;;;2.93;2.73;;;;;;;22.32;40.48;95742.78;5035619;28;20871;-80
2021/09/07 10:20:01;;;;;;;5.73;3.33;;;;;;;22.16;41.58;95736.56;5035153;28;20433;-79
2021/09/07 10:23:16;;;;;;;3.50;3.00;;;;;;;21.89;43.54;95737.09;5034907;28;20437;-79
2021/09/07 10:25:54;;;;;;;5.20;3.47;;;;;;;21.67;41.66;95740.59;5015263;28;20928;-79
2021/09/07 10:28:35;;;;;;;3.23;2.93;;;;;;;21.51;41.81;95729.03;5015221;28;20433;-79
2021/09/07 10:31:08;;;;;;;3.43;3.13;;;;;;;21.62;41.99;95731.28;5017399;28;20465;-80
2021/09/07 10:36:58;;;;;;;3.93;3.50;;;;;;;21.98;40.73;95720.00;5033286;28;20439;-79
2021/09/07 10:39:32;;;;;;;4.80;2.83;;;;;;;22.03;40.29;95733.66;5034507;28;20879;-79
2021/09/07 10:42:02;;;;;;;5.67;2.70;;;;;;;21.80;40.15;95727.47;5000251;28;20531;-79
2021/09/07 10:44:31;;;;;;;8.40;3.20;;;;;;;21.35;40.60;95723.75;5034980;28;20792;-79
2021/09/07 10:47:11;;;;;;;4.40;3.37;;;;;;;21.50;40.75;95714.00;5034731;28;20529;-79
2021/09/07 10:49:48;;;;;;;5.70;3.13;;;;;;;21.82;39.97;95714.78;5034457;28;20476;-79
2021/09/07 10:55:37;;;;;;;5.30;2.90;;;;;;;21.96;40.38;95714.81;5031169;28;20467;-79
2021/09/07 10:58:04;;;;;;;4.67;3.30;;;;;;;21.97;39.76;95712.97;5032928;28;20459;-80
2021/09/07 11:00:36;;;;;;;3.93;3.47;;;;;;;22.21;41.42;95704.75;5034057;28;20876;-80
2021/09/07 11:03:06;;;;;;;2.83;2.63;;;;;;;22.13;39.00;95707.53;5034386;28;20445;-79
2021/09/07 11:05:47;;;;;;;3.10;2.80;;;;;;;22.03;40.05;95714.94;5034238;28;20437;-79
2021/09/07 11:08:40;;;;;;;5.20;3.23;;;;;;;22.16;38.93;95701.81;5034041;28;20439;-79
2021/09/07 11:11:24;;;;;;;3.60;3.30;;;;;;;21.99;39.28;95708.28;5031917;28;20465;-80
2021/09/07 11:13:54;;;;;;;4.97;2.80;;;;;;;21.90;39.93;95704.00;5031745;28;20531;-80
2021/09/07 11:16:21;;;;;;;3.17;2.70;;;;;;;22.20;39.26;95691.56;5031604;28;20456;-79
2021/09/07 11:18:49;;;;;;;4.03;3.13;;;;;;;22.20;39.40;95692.41;5032225;28;20450;-80
2021/09/07 11:21:16;;;;;;;2.83;2.63;;;;;;;22.16;37.65;95696.47;5032734;28;20457;-80
2021/09/07 11:23:43;;;;;;;4.67;2.70;;;;;;;21.95;37.94;95689.09;5031882;28;20529;-80
2021/09/07 11:26:12;;;;;;;2.80;2.60;;;;;;;21.72;38.66;95706.19;5032012;28;20456;-80
2021/09/07 11:28:41;;;;;;;4.63;2.60;;;;;;;21.80;39.31;95690.91;5031697;28;20455;-80
2021/09/07 11:31:11;;;;;;;2.97;2.50;;;;;;;21.90;38.67;95685.31;5032141;28;20532;-79
2021/09/07 11:33:39;;;;;;;5.50;2.93;;;;;;;21.61;38.63;95686.88;5032004;28;20976;-79
2021/09/07 11:36:09;;;;;;;3.07;2.77;;;;;;;21.73;39.75;95689.13;5032389;28;20488;-80
2021/09/07 11:38:39;;;;;;;7.40;3.10;;;;;;;21.89;38.37;95684.47;5031892;28;20487;-80
2021/09/07 11:41:09;;;;;;;3.70;3.40;;;;;;;22.17;38.29;95679.41;5032110;28;20479;-80
2021/09/07 11:43:38;;;;;;;7.57;3.23;;;;;;;22.41;37.99;95683.69;5031733;28;20440;-80
2021/09/07 11:46:10;;;;;;;3.33;2.70;;;;;;;22.49;37.30;95685.41;5031686;28;20476;-80
2021/09/07 11:48:38;;;;;;;4.87;2.70;;;;;;;22.17;38.46;95687.44;5013543;28;20966;-80
2021/09/07 11:51:08;;;;;;;4.70;2.73;;;;;;;22.06;37.78;95677.19;5031515;28;20455;-80
2021/09/07 11:53:36;;;;;;;2.80;2.60;;;;;;;22.16;38.06;95663.53;5031685;28;20450;-80
2021/09/07 11:56:04;;;;;;;3.23;2.53;;;;;;;22.08;38.46;95677.84;5031795;28;20820;-80
2021/09/07 11:58:39;;;;;;;3.73;3.10;;;;;;;22.07;40.60;95670.81;5030545;28;20817;-80
2021/09/07 12:01:09;;;;;;;2.67;2.47;;;;;;;22.19;38.00;95660.50;5033071;28;20471;-79
2021/09/07 12:03:42;;;;;;;4.30;3.07;;;;;;;22.34;37.46;95655.19;5032837;28;20440;-79
2021/09/07 12:06:12;;;;;;;2.83;2.47;;;;;;;22.49;37.40;95650.66;5033277;28;20528;-79
2021/09/07 12:12:06;;;;;;;3.30;2.63;;;;;;;22.23;36.43;95651.94;5032271;28;20432;-79
2021/09/07 12:14:36;;;;;;;5.60;3.03;;;;;;;;;;5014854;28;20453;-79
2021/09/07 12:17:05;;;;;;;2.87;2.67;;;;;;;22.53;35.50;95650.09;5033195;28;20786;-79